Aviation Digital Data Service (ADDS)

Output produced by METARs form (1841 UTC 23 November 2014)
found at http://www.aviationweather.gov/adds/metars/
 
KCXY 231756Z 12005KT 10SM CLR 11/M04 A3012 RMK AO2 SLP202 T01111039 10111 20006 56032
KCXY 231656Z 09004KT 10SM CLR 10/M06 A3014 RMK AO2 SLP209 T01001056
KCXY 231556Z 00000KT 10SM CLR 09/M05 A3018 RMK AO2 SLP222 T00891050
KCXY 231456Z 00000KT 9SM CLR 06/M04 A3021 RMK AO2 SLP236 T00611044 50004
KCXY 231356Z 00000KT 9SM BKN110 03/M04 A3022 RMK AO2 SLP239 T00281044
KCXY 231256Z 00000KT 9SM SCT090 OVC100 02/M04 A3023 RMK AO2 SLP240 T00221039
KCXY 231156Z 00000KT 10SM BKN080 01/M04 A3020 RMK AO2 SLP232 T00111044 10044 20006 51010
KCXY 231056Z AUTO 00000KT 10SM SCT100 02/M05 A3019 RMK AO2 SLP229 T00171050
KCXY 230956Z AUTO 00000KT 10SM FEW110 01/M06 A3018 RMK AO2 SLP225 T00061056
KCXY 230856Z AUTO 00000KT 10SM SCT080 03/M06 A3017 RMK AO2 SLP220 T00281056 56006
KCXY 230756Z AUTO 00000KT 10SM BKN090 BKN110 02/M05 A3018 RMK AO2 SLP221 T00221050
KCXY 230656Z AUTO 00000KT 10SM BKN120 02/M05 A3018 RMK AO2 SLP225 T00171050
KCXY 230556Z AUTO 00000KT 10SM CLR 01/M05 A3019 RMK AO2 SLP227 T00061050 10033 21006 58007
KCXY 230456Z AUTO 00000KT 10SM FEW110 00/M05 A3021 RMK AO2 SLP234 T00001050 400611089
KCXY 230356Z AUTO 31003KT 10SM CLR 01/M06 A3022 RMK AO2 SLP239 T00111061
KCXY 230256Z AUTO 00000KT 10SM FEW110 01/M06 A3021 RMK AO2 SLP234 T00061061 58016
KCXY 230156Z AUTO 00000KT 10SM BKN110 00/M06 A3023 RMK AO2 SLP243 T00001061
KCXY 230056Z 17003KT 10SM CLR 02/M07 A3025 RMK AO2 SLP247 T00171072
KCXY 222356Z 00000KT 10SM BKN070 03/M07 A3026 RMK AO2 SLP251 T00331072 10061 20028 58007
KCXY 222256Z 00000KT 10SM OVC065 06/M08 A3027 RMK AO2 SLP255 T00561083
KCXY 222156Z 24004KT 10SM OVC043 06/M09 A3027 RMK AO2 SLP257 T00561089
KCXY 222056Z 23005KT 10SM OVC045 06/M09 A3028 RMK AO2 SLP259 T00611094 56021
KCXY 221956Z 22006KT 10SM FEW048 OVC065 06/M09 A3029 RMK AO2 SLP262 T00611094
KCXY 221856Z 19005KT 10SM OVC050 05/M11 A3031 RMK AO2 SLP268 T00501106
KCXY 221756Z 21007KT 180V240 10SM BKN050 OVC075 05/M11 A3034 RMK AO2 SLP280 T00501106 10050 21089 56039
KCXY 221656Z 21008KT 170V230 10SM BKN085 05/M10 A3037 RMK AO2 SLP288 T00501100
KCXY 221556Z 20008KT 10SM CLR 03/M09 A3042 RMK AO2 SLP307 T00281094
KCXY 221456Z VRB03KT 10SM CLR 00/M09 A3046 RMK AO2 SLP320 T00001094 58010
KCXY 221356Z 01003KT 8SM CLR M03/M08 A3048 RMK AO2 SLP328 T10281083
KCXY 221256Z 00000KT 9SM CLR M07/M10 A3049 RMK AO2 SLP331 T10721100
KCXY 221156Z 00000KT 10SM CLR M08/M12 A3049 RMK AO2 SLP331 T10831117 11061 21089 57006
KCXY 221056Z AUTO 00000KT 9SM CLR M08/M11 A3050 RMK AO2 SLP333 T10831111
KCXY 220956Z AUTO 00000KT 10SM CLR M08/M12 A3050 RMK AO2 SLP334 T10831117
KCXY 220856Z AUTO 00000KT 9SM CLR M08/M12 A3051 RMK AO2 SLP337 T10781117 56004
KCXY 220756Z AUTO 22003KT 10SM CLR M08/M12 A3051 RMK AO2 SLP337 T10781117
KCXY 220656Z AUTO 00000KT 10SM CLR M07/M11 A3051 RMK AO2 SLP337 T10671111